createdAt,value
2019-03-10T00:00:32.894Z,10.70
2019-03-10T00:03:02.454Z,10.80
2019-03-10T00:05:32.211Z,10.80
2019-03-10T00:08:01.793Z,10.70
2019-03-10T00:10:31.387Z,10.70
2019-03-10T00:13:00.992Z,10.70
2019-03-10T00:15:30.607Z,10.70
2019-03-10T00:18:00.262Z,10.80
2019-03-10T00:20:29.805Z,10.80
2019-03-10T00:22:59.360Z,10.80
2019-03-10T00:25:28.966Z,10.80
2019-03-10T00:27:58.682Z,10.80
2019-03-10T00:30:28.223Z,10.90
2019-03-10T00:32:57.915Z,10.90
2019-03-10T00:35:27.617Z,10.90
2019-03-10T00:37:57.387Z,10.90
2019-03-10T00:41:01.346Z,10.90
2019-03-10T00:43:56.029Z,10.90
2019-03-10T00:46:56.970Z,10.90
2019-03-10T00:49:51.817Z,10.90
2019-03-10T00:52:24.551Z,10.90
2019-03-10T00:54:54.085Z,10.80
2019-03-10T00:57:23.834Z,10.80
2019-03-10T00:59:53.590Z,10.80
2019-03-10T01:02:23.310Z,10.80
2019-03-10T01:04:53.015Z,10.80
2019-03-10T01:07:22.683Z,10.80
2019-03-10T01:09:52.513Z,10.80
2019-03-10T01:12:22.022Z,10.80
2019-03-10T01:14:51.662Z,10.80
2019-03-10T01:17:21.913Z,10.80
2019-03-10T01:19:51.595Z,10.80
2019-03-10T01:22:22.028Z,10.80
2019-03-10T01:24:51.733Z,10.70
2019-03-10T01:27:21.421Z,10.80
2019-03-10T01:29:50.862Z,10.80
2019-03-10T01:32:41.227Z,10.80
2019-03-10T01:35:13.912Z,10.80
2019-03-10T01:37:43.429Z,10.70
2019-03-10T01:40:13.198Z,10.70
2019-03-10T01:42:42.936Z,10.70
2019-03-10T01:45:13.299Z,10.70
2019-03-10T01:47:42.825Z,10.70
2019-03-10T01:50:14.076Z,10.70
2019-03-10T01:52:43.583Z,10.70
2019-03-10T01:55:13.415Z,10.70
2019-03-10T01:57:42.987Z,10.70
2019-03-10T02:00:15.605Z,10.70
2019-03-10T02:02:45.285Z,10.70
2019-03-10T02:05:14.885Z,10.60
2019-03-10T02:07:44.661Z,10.60
2019-03-10T02:10:14.298Z,10.60
2019-03-10T02:12:43.943Z,10.60
2019-03-10T02:15:15.377Z,10.60
2019-03-10T02:17:44.985Z,10.60
2019-03-10T02:20:16.787Z,10.60
2019-03-10T02:22:46.420Z,10.50
2019-03-10T02:25:16.159Z,10.50
2019-03-10T02:27:45.612Z,10.40
2019-03-10T02:30:18.928Z,10.40
2019-03-10T02:32:48.607Z,10.40
2019-03-10T02:35:18.156Z,10.30
2019-03-10T02:37:47.746Z,10.30
2019-03-10T02:40:17.259Z,10.30
2019-03-10T02:42:46.799Z,10.20
2019-03-10T02:45:16.292Z,10.20
2019-03-10T02:47:46.018Z,10.10
2019-03-10T02:50:15.594Z,10.10
2019-03-10T02:52:45.219Z,10.10
2019-03-10T02:55:14.670Z,10.10
2019-03-10T02:57:44.131Z,10.10
2019-03-10T03:00:14.243Z,10.00
2019-03-10T03:02:43.786Z,10.00
2019-03-10T03:05:13.360Z,10.00
2019-03-10T03:07:42.848Z,10.00
2019-03-10T03:10:13.909Z,10.00
2019-03-10T03:12:43.523Z,10.00
2019-03-10T03:15:13.251Z,9.90
2019-03-10T03:17:42.929Z,10.00
2019-03-10T03:20:13.117Z,9.90
2019-03-10T03:22:42.557Z,9.90
2019-03-10T03:25:12.577Z,9.90
2019-03-10T03:27:42.143Z,9.90
2019-03-10T03:30:14.832Z,9.90
2019-03-10T03:32:45.055Z,9.90
2019-03-10T03:35:51.361Z,9.80
2019-03-10T03:38:41.945Z,9.80
2019-03-10T03:41:19.969Z,9.80
2019-03-10T03:43:49.559Z,9.80
2019-03-10T03:46:20.974Z,9.80
2019-03-10T03:48:50.653Z,9.70
2019-03-10T03:51:20.242Z,9.70
2019-03-10T03:53:49.824Z,9.60
2019-03-10T03:56:19.532Z,9.60
2019-03-10T03:58:49.566Z,9.60
2019-03-10T04:01:20.696Z,9.50
2019-03-10T04:03:50.242Z,9.50
2019-03-10T04:06:19.985Z,9.50
2019-03-10T04:08:51.275Z,9.50
2019-03-10T04:11:20.845Z,9.50
2019-03-10T04:13:50.458Z,9.50
2019-03-10T04:16:20.016Z,9.50
2019-03-10T04:18:49.886Z,9.40
2019-03-10T04:21:19.461Z,9.40
2019-03-10T04:23:49.025Z,9.40
2019-03-10T04:26:18.579Z,9.40
2019-03-10T04:28:48.124Z,9.40
2019-03-10T04:31:17.664Z,9.40
2019-03-10T04:33:47.274Z,9.40
2019-03-10T04:36:16.747Z,9.30
2019-03-10T04:38:46.275Z,9.40
2019-03-10T04:41:16.174Z,9.40
2019-03-10T04:43:45.750Z,9.30
2019-03-10T04:46:15.193Z,9.30
2019-03-10T04:48:44.588Z,9.30
2019-03-10T04:51:14.140Z,9.30
2019-03-10T04:53:43.712Z,9.30
2019-03-10T04:56:17.636Z,9.30
2019-03-10T04:58:48.746Z,9.30
2019-03-10T05:01:18.401Z,9.30
2019-03-10T05:03:49.983Z,9.30
2019-03-10T05:06:19.582Z,9.20
2019-03-10T05:08:49.065Z,9.20
2019-03-10T05:11:18.507Z,9.20
2019-03-10T05:13:48.143Z,9.20
2019-03-10T05:16:17.664Z,9.10
2019-03-10T05:18:47.103Z,9.00
2019-03-10T05:21:16.705Z,9.00
2019-03-10T05:23:46.187Z,9.00
2019-03-10T05:26:15.665Z,8.90
2019-03-10T05:28:45.687Z,8.90
2019-03-10T05:31:15.381Z,8.90
2019-03-10T05:33:45.034Z,8.90
2019-03-10T05:36:14.698Z,8.90
2019-03-10T05:38:44.465Z,8.90
2019-03-10T05:41:14.094Z,8.90
2019-03-10T05:43:43.714Z,9.00
2019-03-10T05:46:13.262Z,9.00
2019-03-10T05:48:42.810Z,9.00
2019-03-10T05:51:12.322Z,9.00
2019-03-10T05:53:41.913Z,9.10
2019-03-10T05:56:11.459Z,9.10
2019-03-10T05:58:40.944Z,9.20
2019-03-10T06:01:10.456Z,9.20
2019-03-10T06:03:39.986Z,9.20
2019-03-10T06:06:09.585Z,9.20
2019-03-10T06:08:39.118Z,9.30
2019-03-10T06:11:08.652Z,9.30
2019-03-10T06:13:38.273Z,9.40
2019-03-10T06:16:07.825Z,9.40
2019-03-10T06:18:37.539Z,9.40
2019-03-10T06:21:07.079Z,9.40
2019-03-10T06:23:36.502Z,9.40
2019-03-10T06:26:06.066Z,9.50
2019-03-10T06:28:35.662Z,9.50
2019-03-10T06:31:05.289Z,9.60
2019-03-10T06:33:34.866Z,9.70
2019-03-10T06:36:04.862Z,9.70
2019-03-10T06:38:34.562Z,9.70
2019-03-10T06:41:04.222Z,9.80
2019-03-10T06:43:33.947Z,9.90
2019-03-10T06:46:03.633Z,10.00
2019-03-10T06:48:33.245Z,10.30
2019-03-10T06:51:03.483Z,10.40
2019-03-10T06:53:32.888Z,10.60
2019-03-10T06:56:02.409Z,10.70
2019-03-10T06:58:31.898Z,10.90
2019-03-10T07:01:02.436Z,11.00
2019-03-10T07:03:31.962Z,11.10
2019-03-10T07:06:01.474Z,11.20
2019-03-10T07:08:32.627Z,11.30
2019-03-10T07:11:02.520Z,11.50
2019-03-10T07:13:32.114Z,11.50
2019-03-10T07:16:01.561Z,11.60
2019-03-10T07:18:31.108Z,11.70
2019-03-10T07:21:00.631Z,11.70
2019-03-10T07:23:30.131Z,11.80
2019-03-10T07:26:05.510Z,11.80
2019-03-10T07:28:37.239Z,11.80
2019-03-10T07:31:26.645Z,11.90
2019-03-10T07:34:06.239Z,11.90
2019-03-10T07:36:37.334Z,11.90
2019-03-10T07:39:08.823Z,11.90
2019-03-10T07:41:40.048Z,11.90
2019-03-10T07:44:13.582Z,12.00
2019-03-10T07:46:56.840Z,12.00
2019-03-10T07:49:34.020Z,12.00
2019-03-10T07:52:20.119Z,12.10
2019-03-10T07:54:46.826Z,12.10
2019-03-10T07:57:18.153Z,12.10
2019-03-10T08:00:05.475Z,12.10
2019-03-10T08:02:39.302Z,12.10
2019-03-10T08:05:13.434Z,12.20
2019-03-10T08:07:44.718Z,12.20
2019-03-10T08:10:16.047Z,12.20
2019-03-10T08:12:53.206Z,12.20
2019-03-10T08:15:26.902Z,12.20
2019-03-10T08:17:58.117Z,12.30
2019-03-10T08:20:32.166Z,12.30
2019-03-10T08:23:19.325Z,12.30
2019-03-10T08:25:59.510Z,12.30
2019-03-10T08:28:30.600Z,12.30
2019-03-10T08:31:01.827Z,12.20
2019-03-10T08:33:49.081Z,12.20
2019-03-10T08:36:35.047Z,12.20
2019-03-10T08:39:07.959Z,12.20
2019-03-10T08:41:54.070Z,12.20
2019-03-10T08:44:43.133Z,12.20
2019-03-10T08:47:21.038Z,12.20
2019-03-10T08:50:04.088Z,12.10
2019-03-10T08:52:35.294Z,12.10
2019-03-10T08:55:08.468Z,12.10
2019-03-10T08:57:45.502Z,12.00
2019-03-10T09:00:25.630Z,12.10
2019-03-10T09:03:05.726Z,12.10
2019-03-10T09:05:39.619Z,12.20
2019-03-10T09:08:22.464Z,12.30
2019-03-10T09:10:53.631Z,12.40
2019-03-10T09:13:30.548Z,12.40
2019-03-10T09:16:13.784Z,12.40
2019-03-10T09:19:01.219Z,12.50
2019-03-10T09:21:35.146Z,12.50
2019-03-10T09:24:06.440Z,12.50
2019-03-10T09:26:52.638Z,12.60
2019-03-10T09:29:40.042Z,12.60
2019-03-10T09:32:14.154Z,12.50
2019-03-10T09:34:56.739Z,12.50
2019-03-10T09:37:30.696Z,12.50
2019-03-10T09:40:17.876Z,12.50
2019-03-10T09:42:51.978Z,12.50
2019-03-10T09:45:31.931Z,12.40
2019-03-10T09:48:21.391Z,12.40
2019-03-10T09:50:58.111Z,12.40
2019-03-10T09:53:32.015Z,12.40
2019-03-10T09:56:03.241Z,12.50
2019-03-10T09:58:50.353Z,12.50
2019-03-10T10:01:21.486Z,12.50
2019-03-10T10:03:52.661Z,12.50
2019-03-10T10:06:26.367Z,12.40
2019-03-10T10:09:00.482Z,12.40
2019-03-10T10:11:43.627Z,12.40
2019-03-10T10:14:23.923Z,12.30
2019-03-10T10:16:55.078Z,12.20
2019-03-10T10:19:32.290Z,12.00
2019-03-10T10:22:12.483Z,11.90
2019-03-10T10:24:52.519Z,11.90
2019-03-10T10:27:26.812Z,11.90
2019-03-10T10:29:57.882Z,11.90
2019-03-10T10:32:34.887Z,11.90
2019-03-10T10:35:10.469Z,11.90
2019-03-10T10:37:56.627Z,11.80
2019-03-10T10:40:43.996Z,11.80
2019-03-10T10:46:04.679Z,11.80
2019-03-10T10:48:50.816Z,11.80
2019-03-10T10:51:37.735Z,11.70
2019-03-10T10:54:09.029Z,11.60
2019-03-10T10:56:55.621Z,11.50
2019-03-10T10:59:26.834Z,11.50
2019-03-10T11:01:58.026Z,11.50
2019-03-10T11:04:33.764Z,11.50
2019-03-10T11:07:10.266Z,11.50
2019-03-10T11:09:44.093Z,11.50
2019-03-10T11:12:24.495Z,11.50
2019-03-10T11:14:58.355Z,11.50
2019-03-10T11:17:29.651Z,11.60
2019-03-10T11:20:06.543Z,11.60
2019-03-10T11:22:37.787Z,11.70
2019-03-10T11:25:09.364Z,11.70
2019-03-10T11:30:34.640Z,11.70
2019-03-10T11:33:18.051Z,11.70
2019-03-10T11:35:53.640Z,11.70
2019-03-10T11:38:30.884Z,11.70
2019-03-10T11:41:06.013Z,11.70
2019-03-10T11:46:36.301Z,11.70
2019-03-10T11:49:07.606Z,11.70
2019-03-10T11:51:44.727Z,11.70
2019-03-10T11:54:32.507Z,11.80
2019-03-10T11:57:09.569Z,11.80
2019-03-10T11:59:40.816Z,11.90
2019-03-10T12:02:17.905Z,11.90
2019-03-10T12:05:04.006Z,12.00
2019-03-10T12:10:13.499Z,12.00
2019-03-10T12:12:43.176Z,12.10
2019-03-10T12:15:14.029Z,12.10
2019-03-10T12:17:45.023Z,12.00
2019-03-10T12:20:14.727Z,12.00
2019-03-10T12:22:44.261Z,12.00
2019-03-10T12:25:14.299Z,12.00
2019-03-10T12:27:43.899Z,12.00
2019-03-10T12:30:15.604Z,12.10
2019-03-10T12:32:45.249Z,12.10
2019-03-10T12:35:14.945Z,12.10
2019-03-10T12:37:50.125Z,12.10
2019-03-10T12:40:25.838Z,12.10
2019-03-10T12:42:58.685Z,12.00
2019-03-10T12:45:28.467Z,12.00
2019-03-10T12:47:58.349Z,11.90
2019-03-10T12:50:27.823Z,11.90
2019-03-10T12:52:57.323Z,11.90
2019-03-10T12:55:26.891Z,11.80
2019-03-10T12:57:56.433Z,11.80
2019-03-10T13:00:25.891Z,11.80
2019-03-10T13:02:55.292Z,11.70
2019-03-10T13:05:24.916Z,11.70
2019-03-10T13:07:54.432Z,11.70
2019-03-10T13:10:23.863Z,11.70
2019-03-10T13:12:53.365Z,11.70
2019-03-10T13:15:22.849Z,11.70
2019-03-10T13:17:52.284Z,11.60
2019-03-10T13:20:28.138Z,11.60
2019-03-10T13:22:52.779Z,11.50
2019-03-10T13:25:22.327Z,11.50
2019-03-10T13:27:51.833Z,11.30
2019-03-10T13:30:21.207Z,11.20
2019-03-10T13:32:50.635Z,11.30
2019-03-10T13:35:20.081Z,11.30
2019-03-10T13:37:50.301Z,11.30
2019-03-10T13:40:19.725Z,11.30
2019-03-10T13:42:49.198Z,11.30
2019-03-10T13:47:54.859Z,11.20
2019-03-10T13:50:24.401Z,11.20
2019-03-10T13:52:54.135Z,11.10
2019-03-10T13:55:23.755Z,11.00
2019-03-10T13:57:53.317Z,11.00
2019-03-10T14:00:27.027Z,11.00
2019-03-10T14:02:56.582Z,10.90
2019-03-10T14:05:26.163Z,11.00
2019-03-10T14:07:55.783Z,11.00
2019-03-10T14:10:25.355Z,11.00
2019-03-10T14:12:54.931Z,11.00
2019-03-10T14:15:26.219Z,11.00
2019-03-10T14:17:55.717Z,11.00
2019-03-10T14:20:25.226Z,11.00
2019-03-10T14:22:54.967Z,11.00
2019-03-10T14:25:24.483Z,11.00
2019-03-10T14:27:54.036Z,11.00
2019-03-10T14:30:23.702Z,11.00
2019-03-10T14:32:53.189Z,11.00
2019-03-10T14:35:22.768Z,11.00
2019-03-10T14:37:52.355Z,11.00
2019-03-10T14:40:22.303Z,11.00
2019-03-10T14:42:51.870Z,11.00
2019-03-10T14:45:21.534Z,11.10
2019-03-10T14:47:51.022Z,11.10
2019-03-10T14:50:20.734Z,11.00
2019-03-10T14:52:50.419Z,10.90
2019-03-10T14:55:23.143Z,10.70
2019-03-10T14:57:52.637Z,10.50
2019-03-10T15:00:27.097Z,10.20
2019-03-10T15:02:56.688Z,9.90
2019-03-10T15:05:26.355Z,9.60
2019-03-10T15:07:55.867Z,9.40
2019-03-10T15:10:25.723Z,9.30
2019-03-10T15:12:55.188Z,9.20
2019-03-10T15:15:24.762Z,9.10
2019-03-10T15:17:54.365Z,9.10
2019-03-10T15:20:23.889Z,9.10
2019-03-10T15:22:53.331Z,9.20
2019-03-10T15:25:25.167Z,9.20
2019-03-10T15:27:54.879Z,9.30
2019-03-10T15:30:26.748Z,9.30
2019-03-10T15:32:56.288Z,9.40
2019-03-10T15:35:26.063Z,9.30
2019-03-10T15:37:55.627Z,9.30
2019-03-10T15:40:25.285Z,9.30
2019-03-10T15:42:54.895Z,9.30
2019-03-10T15:45:24.283Z,9.20
2019-03-10T15:47:53.801Z,9.10
2019-03-10T15:50:35.252Z,9.10
2019-03-10T15:53:04.847Z,9.00
2019-03-10T15:55:34.399Z,9.00
2019-03-10T15:58:04.300Z,8.90
2019-03-10T16:00:33.911Z,8.90
2019-03-10T16:03:03.515Z,8.90
2019-03-10T16:05:33.233Z,8.80
2019-03-10T16:08:02.714Z,8.70
2019-03-10T16:10:32.629Z,8.70
2019-03-10T16:13:02.220Z,8.70
2019-03-10T16:15:31.988Z,8.70
2019-03-10T16:18:01.513Z,8.70
2019-03-10T16:20:31.010Z,8.60
2019-03-10T16:23:00.431Z,8.60
2019-03-10T16:25:30.051Z,8.60
2019-03-10T16:27:59.492Z,8.50
2019-03-10T16:30:29.575Z,8.60
2019-03-10T16:32:59.168Z,8.60
2019-03-10T16:35:28.571Z,8.60
2019-03-10T16:37:58.051Z,8.50
2019-03-10T16:40:27.710Z,8.50
2019-03-10T16:42:58.384Z,8.50
2019-03-10T16:45:28.756Z,8.40
2019-03-10T16:47:58.375Z,8.40
2019-03-10T16:50:29.436Z,8.40
2019-03-10T16:52:59.029Z,8.40
2019-03-10T16:55:28.650Z,8.30
2019-03-10T16:57:58.220Z,8.30
2019-03-10T17:00:28.585Z,8.30
2019-03-10T17:02:58.143Z,8.20
2019-03-10T17:05:27.728Z,8.10
2019-03-10T17:07:57.312Z,8.10
2019-03-10T17:10:27.411Z,8.10
2019-03-10T17:12:56.905Z,8.00
2019-03-10T17:15:26.733Z,8.00
2019-03-10T17:17:56.252Z,8.00
2019-03-10T17:20:25.884Z,7.90
2019-03-10T17:22:55.332Z,7.90
2019-03-10T17:25:24.806Z,7.80
2019-03-10T17:27:54.342Z,7.80
2019-03-10T17:30:24.548Z,7.80
2019-03-10T17:32:54.031Z,7.80
2019-03-10T17:35:23.549Z,7.70
2019-03-10T17:37:53.026Z,7.70
2019-03-10T17:40:24.526Z,7.60
2019-03-10T17:42:54.199Z,7.60
2019-03-10T17:45:24.885Z,7.60
2019-03-10T17:47:54.376Z,7.60
2019-03-10T17:50:23.926Z,7.50
2019-03-10T17:52:53.512Z,7.50
2019-03-10T17:55:23.592Z,7.40
2019-03-10T17:57:53.198Z,7.40
2019-03-10T18:00:30.498Z,7.40
2019-03-10T18:02:59.948Z,7.40
2019-03-10T18:05:29.573Z,7.30
2019-03-10T18:07:59.184Z,7.30
2019-03-10T18:10:28.816Z,7.20
2019-03-10T18:12:58.298Z,7.20
2019-03-10T18:15:27.876Z,7.20
2019-03-10T18:17:57.460Z,7.20
2019-03-10T18:20:26.969Z,7.20
2019-03-10T18:22:56.540Z,7.20
2019-03-10T18:25:26.100Z,7.20
2019-03-10T18:27:55.822Z,7.20
2019-03-10T18:30:26.912Z,7.20
2019-03-10T18:32:56.406Z,7.10
2019-03-10T18:35:26.079Z,7.10
2019-03-10T18:37:55.600Z,7.10
2019-03-10T18:40:26.431Z,7.20
2019-03-10T18:42:56.065Z,7.20
2019-03-10T18:45:25.610Z,7.10
2019-03-10T18:47:55.094Z,7.00
2019-03-10T18:50:26.946Z,7.00
2019-03-10T18:52:56.829Z,6.90
2019-03-10T18:55:26.922Z,6.90
2019-03-10T18:57:56.488Z,6.90
2019-03-10T19:00:27.538Z,6.80
2019-03-10T19:02:57.373Z,6.80
2019-03-10T19:05:26.929Z,6.70
2019-03-10T19:07:56.347Z,6.70
2019-03-10T19:10:25.985Z,6.70
2019-03-10T19:12:55.462Z,6.60
2019-03-10T19:15:28.576Z,6.60
2019-03-10T19:17:58.876Z,6.60
2019-03-10T19:20:28.342Z,6.50
2019-03-10T19:22:57.932Z,6.50
2019-03-10T19:25:27.437Z,6.60
2019-03-10T19:27:56.870Z,6.60
2019-03-10T19:30:26.380Z,6.60
2019-03-10T19:32:55.882Z,6.70
2019-03-10T19:35:25.540Z,6.70
2019-03-10T19:37:54.950Z,6.80
2019-03-10T19:40:24.761Z,6.80
2019-03-10T19:42:54.222Z,6.80
2019-03-10T19:45:24.598Z,6.80
2019-03-10T19:47:54.037Z,6.90
2019-03-10T19:50:27.015Z,6.90
2019-03-10T19:52:56.116Z,7.00
2019-03-10T19:55:25.841Z,7.00
2019-03-10T19:57:55.341Z,7.00
2019-03-10T20:00:24.886Z,7.00
2019-03-10T20:02:54.358Z,7.10
2019-03-10T20:05:23.904Z,7.10
2019-03-10T20:07:53.381Z,7.20
2019-03-10T20:10:25.973Z,7.10
2019-03-10T20:12:55.519Z,7.10
2019-03-10T20:15:25.736Z,7.10
2019-03-10T20:17:55.131Z,7.10
2019-03-10T20:20:33.206Z,7.10
2019-03-10T20:23:02.664Z,7.10
2019-03-10T20:25:32.147Z,7.20
2019-03-10T20:28:01.888Z,7.20
2019-03-10T20:30:31.514Z,7.10
2019-03-10T20:33:01.007Z,7.10
2019-03-10T20:35:30.530Z,7.20
2019-03-10T20:38:00.097Z,7.20
2019-03-10T20:40:29.906Z,7.10
2019-03-10T20:42:59.468Z,7.10
2019-03-10T20:45:28.978Z,7.20
2019-03-10T20:47:58.664Z,7.10
2019-03-10T20:50:28.624Z,7.10
2019-03-10T20:52:58.237Z,7.10
2019-03-10T20:55:27.769Z,7.10
2019-03-10T20:57:57.466Z,7.10
2019-03-10T21:00:28.810Z,7.00
2019-03-10T21:02:58.587Z,7.00
2019-03-10T21:05:28.180Z,6.90
2019-03-10T21:07:57.688Z,6.90
2019-03-10T21:10:27.770Z,6.90
2019-03-10T21:12:57.436Z,6.80
2019-03-10T21:15:26.964Z,6.80
2019-03-10T21:17:56.608Z,6.80
2019-03-10T21:20:26.461Z,6.80
2019-03-10T21:22:56.039Z,6.70
2019-03-10T21:25:27.695Z,6.70
2019-03-10T21:27:57.200Z,6.70
2019-03-10T21:30:34.753Z,6.70
2019-03-10T21:33:04.467Z,6.60
2019-03-10T21:35:33.942Z,6.60
2019-03-10T21:38:03.376Z,6.60
2019-03-10T21:40:34.502Z,6.70
2019-03-10T21:43:04.019Z,6.70
2019-03-10T21:45:33.876Z,6.70
2019-03-10T21:48:03.534Z,6.80
2019-03-10T21:50:32.958Z,6.80
2019-03-10T21:53:02.692Z,6.80
2019-03-10T21:55:32.190Z,6.80
2019-03-10T21:58:01.909Z,6.80
2019-03-10T22:00:31.551Z,6.80
2019-03-10T22:03:01.106Z,6.80
2019-03-10T22:05:30.750Z,6.90
2019-03-10T22:08:00.339Z,6.90
2019-03-10T22:10:29.892Z,6.90
2019-03-10T22:12:59.456Z,6.90
2019-03-10T22:15:29.041Z,6.90
2019-03-10T22:17:58.554Z,7.00
2019-03-10T22:20:28.124Z,7.00
2019-03-10T22:22:57.688Z,7.00
2019-03-10T22:25:27.214Z,7.00
2019-03-10T22:27:56.753Z,7.10
2019-03-10T22:30:26.737Z,7.10
2019-03-10T22:32:56.427Z,7.10
2019-03-10T22:35:25.996Z,7.10
2019-03-10T22:37:55.546Z,7.20
2019-03-10T22:40:25.199Z,7.20
2019-03-10T22:42:54.817Z,7.10
2019-03-10T22:45:24.429Z,7.10
2019-03-10T22:47:53.894Z,7.10
2019-03-10T22:50:23.500Z,7.10
2019-03-10T22:52:53.053Z,7.00
2019-03-10T22:55:22.558Z,6.80
2019-03-10T22:57:52.095Z,6.60
2019-03-10T23:00:27.627Z,6.40
2019-03-10T23:02:57.147Z,6.30
2019-03-10T23:05:26.840Z,6.20
2019-03-10T23:07:56.713Z,6.00
2019-03-10T23:10:26.321Z,5.90
2019-03-10T23:12:56.025Z,5.80
2019-03-10T23:15:25.613Z,5.70
2019-03-10T23:17:55.153Z,5.70
2019-03-10T23:20:24.691Z,5.70
2019-03-10T23:22:54.239Z,5.60
2019-03-10T23:25:23.873Z,5.60
2019-03-10T23:27:53.457Z,5.50
2019-03-10T23:30:22.975Z,5.50
2019-03-10T23:32:52.520Z,5.40
2019-03-10T23:35:22.075Z,5.40
2019-03-10T23:37:53.213Z,5.40
2019-03-10T23:40:22.785Z,5.40
2019-03-10T23:42:54.195Z,5.30
2019-03-10T23:45:23.869Z,5.30
2019-03-10T23:47:53.415Z,5.30
2019-03-10T23:50:23.104Z,5.30
2019-03-10T23:52:52.667Z,5.30
2019-03-10T23:55:22.142Z,5.20
2019-03-10T23:57:51.714Z,5.20
